sensor_id;sensor_type;location;lat;lon;timestamp;P1;durP1;ratioP1;P2;durP2;ratioP2
5688;SDS011;2869;50.432;8.680;2022-11-21T00:00:38;8.53;;;2.07;;
5688;SDS011;2869;50.432;8.680;2022-11-21T00:03:05;5.03;;;2.30;;
5688;SDS011;2869;50.432;8.680;2022-11-21T00:05:32;6.10;;;1.80;;
5688;SDS011;2869;50.432;8.680;2022-11-21T00:08:00;11.10;;;2.00;;
5688;SDS011;2869;50.432;8.680;2022-11-21T00:10:27;5.70;;;2.30;;
5688;SDS011;2869;50.432;8.680;2022-11-21T00:12:54;7.13;;;1.87;;
5688;SDS011;2869;50.432;8.680;2022-11-21T00:15:21;4.30;;;1.60;;
5688;SDS011;2869;50.432;8.680;2022-11-21T00:17:49;8.07;;;2.37;;
5688;SDS011;2869;50.432;8.680;2022-11-21T00:20:16;6.03;;;2.30;;
5688;SDS011;2869;50.432;8.680;2022-11-21T00:22:44;7.87;;;2.83;;
5688;SDS011;2869;50.432;8.680;2022-11-21T00:25:12;10.63;;;2.00;;
5688;SDS011;2869;50.432;8.680;2022-11-21T00:27:39;6.00;;;2.13;;
5688;SDS011;2869;50.432;8.680;2022-11-21T00:30:11;4.30;;;2.00;;
5688;SDS011;2869;50.432;8.680;2022-11-21T00:32:39;9.60;;;2.50;;
5688;SDS011;2869;50.432;8.680;2022-11-21T00:35:05;8.33;;;2.30;;
5688;SDS011;2869;50.432;8.680;2022-11-21T00:37:33;6.23;;;2.23;;
5688;SDS011;2869;50.432;8.680;2022-11-21T00:39:59;4.70;;;2.47;;
5688;SDS011;2869;50.432;8.680;2022-11-21T00:42:27;10.53;;;2.50;;
5688;SDS011;2869;50.432;8.680;2022-11-21T00:44:54;13.00;;;2.57;;
5688;SDS011;2869;50.432;8.680;2022-11-21T00:47:21;11.50;;;3.30;;
5688;SDS011;2869;50.432;8.680;2022-11-21T00:49:47;4.30;;;2.07;;
5688;SDS011;2869;50.432;8.680;2022-11-21T00:52:14;15.97;;;3.00;;
5688;SDS011;2869;50.432;8.680;2022-11-21T00:54:41;10.57;;;2.57;;
5688;SDS011;2869;50.432;8.680;2022-11-21T00:57:08;6.97;;;2.30;;
5688;SDS011;2869;50.432;8.680;2022-11-21T00:59:36;7.23;;;2.33;;
5688;SDS011;2869;50.432;8.680;2022-11-21T01:02:02;4.13;;;2.20;;
5688;SDS011;2869;50.432;8.680;2022-11-21T01:04:29;6.57;;;2.50;;
5688;SDS011;2869;50.432;8.680;2022-11-21T01:06:57;8.53;;;2.40;;
5688;SDS011;2869;50.432;8.680;2022-11-21T01:09:23;13.80;;;3.70;;
5688;SDS011;2869;50.432;8.680;2022-11-21T01:11:50;8.23;;;2.83;;
5688;SDS011;2869;50.432;8.680;2022-11-21T01:14:17;6.27;;;2.57;;
5688;SDS011;2869;50.432;8.680;2022-11-21T01:16:45;3.60;;;2.30;;
5688;SDS011;2869;50.432;8.680;2022-11-21T01:19:11;5.77;;;2.30;;
5688;SDS011;2869;50.432;8.680;2022-11-21T01:21:38;4.10;;;2.50;;
5688;SDS011;2869;50.432;8.680;2022-11-21T01:24:05;11.87;;;2.80;;
5688;SDS011;2869;50.432;8.680;2022-11-21T01:26:31;5.07;;;2.23;;
5688;SDS011;2869;50.432;8.680;2022-11-21T01:28:58;5.30;;;2.20;;
5688;SDS011;2869;50.432;8.680;2022-11-21T01:31:26;9.00;;;2.37;;
5688;SDS011;2869;50.432;8.680;2022-11-21T01:33:55;5.20;;;2.23;;
5688;SDS011;2869;50.432;8.680;2022-11-21T01:36:24;5.73;;;2.20;;
5688;SDS011;2869;50.432;8.680;2022-11-21T01:38:53;6.10;;;2.23;;
5688;SDS011;2869;50.432;8.680;2022-11-21T01:41:22;11.57;;;2.33;;
5688;SDS011;2869;50.432;8.680;2022-11-21T01:43:50;6.80;;;2.57;;
5688;SDS011;2869;50.432;8.680;2022-11-21T01:46:17;5.70;;;2.27;;
5688;SDS011;2869;50.432;8.680;2022-11-21T01:48:46;10.00;;;2.40;;
5688;SDS011;2869;50.432;8.680;2022-11-21T01:51:19;6.07;;;1.90;;
5688;SDS011;2869;50.432;8.680;2022-11-21T01:53:50;7.63;;;2.40;;
5688;SDS011;2869;50.432;8.680;2022-11-21T01:56:20;8.80;;;2.77;;
5688;SDS011;2869;50.432;8.680;2022-11-21T01:58:48;4.43;;;2.17;;
5688;SDS011;2869;50.432;8.680;2022-11-21T02:01:18;8.27;;;2.70;;
5688;SDS011;2869;50.432;8.680;2022-11-21T02:03:45;9.10;;;2.90;;
5688;SDS011;2869;50.432;8.680;2022-11-21T02:06:13;7.20;;;2.70;;
5688;SDS011;2869;50.432;8.680;2022-11-21T02:08:41;5.80;;;2.47;;
5688;SDS011;2869;50.432;8.680;2022-11-21T02:11:11;7.37;;;2.47;;
5688;SDS011;2869;50.432;8.680;2022-11-21T02:13:44;9.63;;;2.83;;
5688;SDS011;2869;50.432;8.680;2022-11-21T02:16:11;6.20;;;2.27;;
5688;SDS011;2869;50.432;8.680;2022-11-21T02:18:38;5.90;;;2.70;;
5688;SDS011;2869;50.432;8.680;2022-11-21T02:21:07;12.70;;;2.73;;
5688;SDS011;2869;50.432;8.680;2022-11-21T02:23:44;11.77;;;3.23;;
5688;SDS011;2869;50.432;8.680;2022-11-21T02:26:20;9.30;;;2.33;;
5688;SDS011;2869;50.432;8.680;2022-11-21T02:28:47;15.53;;;2.73;;
5688;SDS011;2869;50.432;8.680;2022-11-21T02:31:13;10.37;;;3.07;;
5688;SDS011;2869;50.432;8.680;2022-11-21T02:33:40;7.37;;;2.87;;
5688;SDS011;2869;50.432;8.680;2022-11-21T02:39:10;17.13;;;3.97;;
5688;SDS011;2869;50.432;8.680;2022-11-21T02:41:44;8.10;;;2.67;;
5688;SDS011;2869;50.432;8.680;2022-11-21T02:44:17;12.13;;;4.37;;
5688;SDS011;2869;50.432;8.680;2022-11-21T02:46:49;7.93;;;2.63;;
5688;SDS011;2869;50.432;8.680;2022-11-21T02:49:18;9.70;;;3.07;;
5688;SDS011;2869;50.432;8.680;2022-11-21T02:51:50;12.30;;;2.70;;
5688;SDS011;2869;50.432;8.680;2022-11-21T02:54:17;11.33;;;2.70;;
5688;SDS011;2869;50.432;8.680;2022-11-21T02:56:45;15.00;;;2.53;;
5688;SDS011;2869;50.432;8.680;2022-11-21T02:59:12;15.63;;;3.03;;
5688;SDS011;2869;50.432;8.680;2022-11-21T03:01:38;11.47;;;3.00;;
5688;SDS011;2869;50.432;8.680;2022-11-21T03:04:05;9.67;;;2.97;;
5688;SDS011;2869;50.432;8.680;2022-11-21T03:06:32;19.73;;;3.37;;
5688;SDS011;2869;50.432;8.680;2022-11-21T03:08:58;10.77;;;3.13;;
5688;SDS011;2869;50.432;8.680;2022-11-21T03:11:25;11.10;;;3.47;;
5688;SDS011;2869;50.432;8.680;2022-11-21T03:13:53;15.33;;;3.10;;
5688;SDS011;2869;50.432;8.680;2022-11-21T03:16:20;12.73;;;3.50;;
5688;SDS011;2869;50.432;8.680;2022-11-21T03:18:46;5.00;;;2.37;;
5688;SDS011;2869;50.432;8.680;2022-11-21T03:21:13;9.63;;;3.40;;
5688;SDS011;2869;50.432;8.680;2022-11-21T03:23:40;10.43;;;3.13;;
5688;SDS011;2869;50.432;8.680;2022-11-21T03:26:06;18.07;;;3.83;;
5688;SDS011;2869;50.432;8.680;2022-11-21T03:28:33;19.50;;;3.67;;
5688;SDS011;2869;50.432;8.680;2022-11-21T03:31:01;10.20;;;2.80;;
5688;SDS011;2869;50.432;8.680;2022-11-21T03:33:28;15.30;;;4.07;;
5688;SDS011;2869;50.432;8.680;2022-11-21T03:35:54;9.90;;;3.30;;
5688;SDS011;2869;50.432;8.680;2022-11-21T03:38:21;23.80;;;3.07;;
5688;SDS011;2869;50.432;8.680;2022-11-21T03:40:48;17.40;;;4.53;;
5688;SDS011;2869;50.432;8.680;2022-11-21T03:43:14;11.30;;;3.20;;
5688;SDS011;2869;50.432;8.680;2022-11-21T03:45:41;20.70;;;3.83;;
5688;SDS011;2869;50.432;8.680;2022-11-21T03:48:12;17.57;;;3.40;;
5688;SDS011;2869;50.432;8.680;2022-11-21T03:50:40;17.13;;;4.20;;
5688;SDS011;2869;50.432;8.680;2022-11-21T03:53:08;12.13;;;3.13;;
5688;SDS011;2869;50.432;8.680;2022-11-21T03:55:34;15.43;;;3.80;;
5688;SDS011;2869;50.432;8.680;2022-11-21T03:58:01;12.60;;;3.80;;
5688;SDS011;2869;50.432;8.680;2022-11-21T04:00:28;17.17;;;3.37;;
5688;SDS011;2869;50.432;8.680;2022-11-21T04:02:54;9.93;;;3.27;;
5688;SDS011;2869;50.432;8.680;2022-11-21T04:05:22;20.53;;;3.20;;
5688;SDS011;2869;50.432;8.680;2022-11-21T04:07:49;15.23;;;3.90;;
5688;SDS011;2869;50.432;8.680;2022-11-21T04:10:17;9.33;;;3.53;;
5688;SDS011;2869;50.432;8.680;2022-11-21T04:12:44;14.50;;;3.67;;
5688;SDS011;2869;50.432;8.680;2022-11-21T04:15:11;8.60;;;3.47;;
5688;SDS011;2869;50.432;8.680;2022-11-21T04:17:38;11.67;;;3.43;;
5688;SDS011;2869;50.432;8.680;2022-11-21T04:20:05;14.93;;;4.57;;
5688;SDS011;2869;50.432;8.680;2022-11-21T04:22:33;17.13;;;4.50;;
5688;SDS011;2869;50.432;8.680;2022-11-21T04:25:00;15.33;;;4.10;;
5688;SDS011;2869;50.432;8.680;2022-11-21T04:27:26;23.17;;;4.00;;
5688;SDS011;2869;50.432;8.680;2022-11-21T04:29:53;9.63;;;4.13;;
5688;SDS011;2869;50.432;8.680;2022-11-21T04:32:20;9.63;;;3.77;;
5688;SDS011;2869;50.432;8.680;2022-11-21T04:34:46;8.37;;;3.63;;
5688;SDS011;2869;50.432;8.680;2022-11-21T04:37:13;20.70;;;4.17;;
5688;SDS011;2869;50.432;8.680;2022-11-21T04:39:41;17.40;;;3.80;;
5688;SDS011;2869;50.432;8.680;2022-11-21T04:42:07;10.10;;;3.77;;
5688;SDS011;2869;50.432;8.680;2022-11-21T04:44:34;17.83;;;3.93;;
5688;SDS011;2869;50.432;8.680;2022-11-21T04:47:01;13.93;;;3.50;;
5688;SDS011;2869;50.432;8.680;2022-11-21T04:49:27;21.33;;;4.90;;
5688;SDS011;2869;50.432;8.680;2022-11-21T04:51:54;14.00;;;4.00;;
5688;SDS011;2869;50.432;8.680;2022-11-21T04:54:21;19.03;;;4.80;;
5688;SDS011;2869;50.432;8.680;2022-11-21T04:56:49;25.40;;;4.37;;
5688;SDS011;2869;50.432;8.680;2022-11-21T04:59:15;14.27;;;4.30;;
5688;SDS011;2869;50.432;8.680;2022-11-21T05:01:42;11.50;;;4.23;;
5688;SDS011;2869;50.432;8.680;2022-11-21T05:04:09;22.13;;;4.60;;
5688;SDS011;2869;50.432;8.680;2022-11-21T05:06:35;14.30;;;4.50;;
5688;SDS011;2869;50.432;8.680;2022-11-21T05:09:02;17.47;;;5.13;;
5688;SDS011;2869;50.432;8.680;2022-11-21T05:11:29;14.60;;;4.67;;
5688;SDS011;2869;50.432;8.680;2022-11-21T05:14:14;14.00;;;4.30;;
5688;SDS011;2869;50.432;8.680;2022-11-21T05:16:41;19.87;;;4.67;;
5688;SDS011;2869;50.432;8.680;2022-11-21T05:19:08;22.47;;;4.47;;
5688;SDS011;2869;50.432;8.680;2022-11-21T05:21:34;16.40;;;5.00;;
5688;SDS011;2869;50.432;8.680;2022-11-21T05:24:01;14.00;;;4.73;;
5688;SDS011;2869;50.432;8.680;2022-11-21T05:26:28;11.87;;;4.87;;
5688;SDS011;2869;50.432;8.680;2022-11-21T05:28:54;10.70;;;4.97;;
5688;SDS011;2869;50.432;8.680;2022-11-21T05:31:22;13.87;;;4.13;;
5688;SDS011;2869;50.432;8.680;2022-11-21T05:33:49;7.80;;;4.53;;
5688;SDS011;2869;50.432;8.680;2022-11-21T05:36:16;13.33;;;4.70;;
5688;SDS011;2869;50.432;8.680;2022-11-21T05:38:42;12.80;;;4.80;;
5688;SDS011;2869;50.432;8.680;2022-11-21T05:41:09;16.60;;;5.10;;
5688;SDS011;2869;50.432;8.680;2022-11-21T05:43:36;27.27;;;5.27;;
5688;SDS011;2869;50.432;8.680;2022-11-21T05:46:10;22.17;;;5.60;;
5688;SDS011;2869;50.432;8.680;2022-11-21T05:48:38;15.70;;;4.43;;
5688;SDS011;2869;50.432;8.680;2022-11-21T05:51:05;10.33;;;4.60;;
5688;SDS011;2869;50.432;8.680;2022-11-21T05:53:32;9.23;;;4.37;;
5688;SDS011;2869;50.432;8.680;2022-11-21T05:56:00;18.47;;;4.93;;
5688;SDS011;2869;50.432;8.680;2022-11-21T05:58:29;13.33;;;4.40;;
5688;SDS011;2869;50.432;8.680;2022-11-21T06:00:56;15.73;;;5.27;;
5688;SDS011;2869;50.432;8.680;2022-11-21T06:03:23;11.97;;;4.40;;
5688;SDS011;2869;50.432;8.680;2022-11-21T06:05:56;17.23;;;4.37;;
5688;SDS011;2869;50.432;8.680;2022-11-21T06:08:24;12.63;;;4.40;;
5688;SDS011;2869;50.432;8.680;2022-11-21T06:10:51;11.57;;;4.20;;
5688;SDS011;2869;50.432;8.680;2022-11-21T06:13:18;9.23;;;4.70;;
5688;SDS011;2869;50.432;8.680;2022-11-21T06:15:48;14.07;;;4.00;;
5688;SDS011;2869;50.432;8.680;2022-11-21T06:18:15;21.20;;;4.97;;
5688;SDS011;2869;50.432;8.680;2022-11-21T06:20:42;11.00;;;4.80;;
5688;SDS011;2869;50.432;8.680;2022-11-21T06:23:10;7.40;;;3.90;;
5688;SDS011;2869;50.432;8.680;2022-11-21T06:25:37;11.40;;;4.90;;
5688;SDS011;2869;50.432;8.680;2022-11-21T06:28:04;10.00;;;4.50;;
5688;SDS011;2869;50.432;8.680;2022-11-21T06:30:30;11.10;;;5.23;;
5688;SDS011;2869;50.432;8.680;2022-11-21T06:32:58;12.40;;;4.40;;
5688;SDS011;2869;50.432;8.680;2022-11-21T06:35:24;18.60;;;4.70;;
5688;SDS011;2869;50.432;8.680;2022-11-21T06:37:51;7.30;;;4.27;;
5688;SDS011;2869;50.432;8.680;2022-11-21T06:40:19;26.07;;;4.70;;
5688;SDS011;2869;50.432;8.680;2022-11-21T06:42:46;8.73;;;5.10;;
5688;SDS011;2869;50.432;8.680;2022-11-21T06:45:12;11.93;;;4.73;;
5688;SDS011;2869;50.432;8.680;2022-11-21T06:47:39;9.90;;;4.63;;
5688;SDS011;2869;50.432;8.680;2022-11-21T06:50:06;22.90;;;5.80;;
5688;SDS011;2869;50.432;8.680;2022-11-21T06:52:33;12.63;;;5.10;;
5688;SDS011;2869;50.432;8.680;2022-11-21T06:55:00;37.87;;;5.60;;
5688;SDS011;2869;50.432;8.680;2022-11-21T06:57:28;16.20;;;4.80;;
5688;SDS011;2869;50.432;8.680;2022-11-21T06:59:56;11.47;;;5.23;;
5688;SDS011;2869;50.432;8.680;2022-11-21T07:02:23;9.30;;;5.40;;
5688;SDS011;2869;50.432;8.680;2022-11-21T07:04:51;12.27;;;4.83;;
5688;SDS011;2869;50.432;8.680;2022-11-21T07:07:17;14.83;;;4.33;;
5688;SDS011;2869;50.432;8.680;2022-11-21T07:09:44;14.73;;;4.73;;
5688;SDS011;2869;50.432;8.680;2022-11-21T07:12:12;13.40;;;5.00;;
5688;SDS011;2869;50.432;8.680;2022-11-21T07:14:57;14.50;;;4.80;;
5688;SDS011;2869;50.432;8.680;2022-11-21T07:17:24;13.03;;;4.80;;
5688;SDS011;2869;50.432;8.680;2022-11-21T07:19:51;15.63;;;4.87;;
5688;SDS011;2869;50.432;8.680;2022-11-21T07:22:17;12.03;;;4.30;;
5688;SDS011;2869;50.432;8.680;2022-11-21T07:24:44;11.43;;;4.40;;
5688;SDS011;2869;50.432;8.680;2022-11-21T07:27:11;14.40;;;4.67;;
5688;SDS011;2869;50.432;8.680;2022-11-21T07:29:37;16.47;;;5.23;;
5688;SDS011;2869;50.432;8.680;2022-11-21T07:32:05;9.20;;;5.53;;
5688;SDS011;2869;50.432;8.680;2022-11-21T07:34:32;14.40;;;4.93;;
5688;SDS011;2869;50.432;8.680;2022-11-21T07:36:59;20.20;;;5.03;;
5688;SDS011;2869;50.432;8.680;2022-11-21T07:39:26;6.93;;;4.50;;
5688;SDS011;2869;50.432;8.680;2022-11-21T07:41:53;9.30;;;4.50;;
5688;SDS011;2869;50.432;8.680;2022-11-21T07:44:20;25.60;;;4.40;;
5688;SDS011;2869;50.432;8.680;2022-11-21T07:46:47;16.83;;;4.60;;
5688;SDS011;2869;50.432;8.680;2022-11-21T07:49:15;11.33;;;4.40;;
5688;SDS011;2869;50.432;8.680;2022-11-21T07:51:41;12.00;;;4.97;;
5688;SDS011;2869;50.432;8.680;2022-11-21T07:54:08;11.73;;;4.03;;
5688;SDS011;2869;50.432;8.680;2022-11-21T07:56:35;10.20;;;5.03;;
5688;SDS011;2869;50.432;8.680;2022-11-21T07:59:02;11.13;;;3.87;;
5688;SDS011;2869;50.432;8.680;2022-11-21T08:01:28;12.93;;;4.17;;
5688;SDS011;2869;50.432;8.680;2022-11-21T08:03:55;9.50;;;3.33;;
5688;SDS011;2869;50.432;8.680;2022-11-21T08:06:23;18.17;;;4.27;;
5688;SDS011;2869;50.432;8.680;2022-11-21T08:08:51;6.40;;;4.20;;
5688;SDS011;2869;50.432;8.680;2022-11-21T08:11:17;8.87;;;3.90;;
5688;SDS011;2869;50.432;8.680;2022-11-21T08:13:44;9.57;;;3.63;;
5688;SDS011;2869;50.432;8.680;2022-11-21T08:16:11;8.60;;;3.00;;
5688;SDS011;2869;50.432;8.680;2022-11-21T08:18:38;7.53;;;3.40;;
5688;SDS011;2869;50.432;8.680;2022-11-21T08:21:04;6.57;;;2.73;;
5688;SDS011;2869;50.432;8.680;2022-11-21T08:23:32;13.37;;;3.63;;
5688;SDS011;2869;50.432;8.680;2022-11-21T08:25:59;6.00;;;2.90;;
5688;SDS011;2869;50.432;8.680;2022-11-21T08:28:26;5.87;;;2.80;;
5688;SDS011;2869;50.432;8.680;2022-11-21T08:30:53;5.33;;;3.30;;
5688;SDS011;2869;50.432;8.680;2022-11-21T08:33:19;6.20;;;2.70;;
5688;SDS011;2869;50.432;8.680;2022-11-21T08:35:46;5.43;;;3.27;;
5688;SDS011;2869;50.432;8.680;2022-11-21T08:38:13;3.67;;;2.67;;
5688;SDS011;2869;50.432;8.680;2022-11-21T08:40:41;7.63;;;2.93;;
5688;SDS011;2869;50.432;8.680;2022-11-21T08:43:08;4.40;;;3.10;;
5688;SDS011;2869;50.432;8.680;2022-11-21T08:45:35;6.93;;;3.17;;
5688;SDS011;2869;50.432;8.680;2022-11-21T08:48:03;6.47;;;3.40;;
5688;SDS011;2869;50.432;8.680;2022-11-21T08:50:34;4.03;;;3.00;;
5688;SDS011;2869;50.432;8.680;2022-11-21T08:53:00;5.90;;;2.90;;
5688;SDS011;2869;50.432;8.680;2022-11-21T08:55:27;4.07;;;2.77;;
5688;SDS011;2869;50.432;8.680;2022-11-21T08:57:55;11.27;;;2.90;;
5688;SDS011;2869;50.432;8.680;2022-11-21T09:00:22;3.83;;;2.50;;
5688;SDS011;2869;50.432;8.680;2022-11-21T09:02:49;7.07;;;2.50;;
5688;SDS011;2869;50.432;8.680;2022-11-21T09:05:15;7.13;;;2.77;;
5688;SDS011;2869;50.432;8.680;2022-11-21T09:07:42;3.50;;;2.40;;
5688;SDS011;2869;50.432;8.680;2022-11-21T09:10:09;4.43;;;2.70;;
5688;SDS011;2869;50.432;8.680;2022-11-21T09:12:36;5.77;;;2.73;;
5688;SDS011;2869;50.432;8.680;2022-11-21T09:15:04;5.17;;;2.63;;
5688;SDS011;2869;50.432;8.680;2022-11-21T09:17:49;3.10;;;2.20;;
5688;SDS011;2869;50.432;8.680;2022-11-21T09:20:33;3.17;;;2.13;;
5688;SDS011;2869;50.432;8.680;2022-11-21T09:23:04;5.97;;;2.27;;
5688;SDS011;2869;50.432;8.680;2022-11-21T09:25:32;8.50;;;2.20;;
5688;SDS011;2869;50.432;8.680;2022-11-21T09:27:58;10.13;;;2.17;;
5688;SDS011;2869;50.432;8.680;2022-11-21T09:30:27;4.30;;;2.40;;
5688;SDS011;2869;50.432;8.680;2022-11-21T09:32:58;9.03;;;2.40;;
5688;SDS011;2869;50.432;8.680;2022-11-21T09:35:25;3.80;;;2.50;;
5688;SDS011;2869;50.432;8.680;2022-11-21T09:37:52;3.60;;;2.47;;
5688;SDS011;2869;50.432;8.680;2022-11-21T09:40:19;7.40;;;2.50;;
5688;SDS011;2869;50.432;8.680;2022-11-21T09:42:55;5.60;;;2.00;;
5688;SDS011;2869;50.432;8.680;2022-11-21T09:45:33;4.40;;;2.67;;
5688;SDS011;2869;50.432;8.680;2022-11-21T09:48:02;4.30;;;2.47;;
5688;SDS011;2869;50.432;8.680;2022-11-21T09:50:34;7.50;;;2.20;;
5688;SDS011;2869;50.432;8.680;2022-11-21T09:53:04;10.17;;;2.50;;
5688;SDS011;2869;50.432;8.680;2022-11-21T09:55:37;6.70;;;2.50;;
5688;SDS011;2869;50.432;8.680;2022-11-21T09:58:10;2.60;;;2.10;;
5688;SDS011;2869;50.432;8.680;2022-11-21T10:00:45;4.73;;;2.13;;
5688;SDS011;2869;50.432;8.680;2022-11-21T10:03:15;3.43;;;2.53;;
5688;SDS011;2869;50.432;8.680;2022-11-21T10:05:43;6.80;;;2.80;;
5688;SDS011;2869;50.432;8.680;2022-11-21T10:08:15;3.73;;;2.20;;
5688;SDS011;2869;50.432;8.680;2022-11-21T10:10:51;4.33;;;2.50;;
5688;SDS011;2869;50.432;8.680;2022-11-21T10:13:25;3.17;;;2.40;;
5688;SDS011;2869;50.432;8.680;2022-11-21T10:16:02;4.07;;;2.70;;
5688;SDS011;2869;50.432;8.680;2022-11-21T10:18:39;2.30;;;2.10;;
5688;SDS011;2869;50.432;8.680;2022-11-21T10:21:24;3.43;;;2.50;;
5688;SDS011;2869;50.432;8.680;2022-11-21T10:24:06;4.40;;;1.87;;
5688;SDS011;2869;50.432;8.680;2022-11-21T10:26:40;5.30;;;1.77;;
5688;SDS011;2869;50.432;8.680;2022-11-21T10:29:13;3.53;;;2.00;;
5688;SDS011;2869;50.432;8.680;2022-11-21T10:31:48;4.40;;;2.00;;
5688;SDS011;2869;50.432;8.680;2022-11-21T10:34:16;3.43;;;2.10;;
5688;SDS011;2869;50.432;8.680;2022-11-21T10:36:47;2.70;;;1.87;;
5688;SDS011;2869;50.432;8.680;2022-11-21T10:39:18;3.47;;;1.90;;
5688;SDS011;2869;50.432;8.680;2022-11-21T10:41:49;1.83;;;1.73;;
5688;SDS011;2869;50.432;8.680;2022-11-21T10:44:23;3.17;;;2.13;;
5688;SDS011;2869;50.432;8.680;2022-11-21T10:47:14;3.00;;;1.90;;
5688;SDS011;2869;50.432;8.680;2022-11-21T10:49:53;2.60;;;1.90;;
5688;SDS011;2869;50.432;8.680;2022-11-21T10:52:25;5.73;;;2.10;;
5688;SDS011;2869;50.432;8.680;2022-11-21T10:55:09;3.33;;;2.00;;
5688;SDS011;2869;50.432;8.680;2022-11-21T10:57:38;1.70;;;1.60;;
5688;SDS011;2869;50.432;8.680;2022-11-21T11:00:16;2.33;;;1.80;;
5688;SDS011;2869;50.432;8.680;2022-11-21T11:03:01;4.00;;;2.27;;
5688;SDS011;2869;50.432;8.680;2022-11-21T11:05:33;1.80;;;1.63;;
5688;SDS011;2869;50.432;8.680;2022-11-21T11:08:02;5.93;;;1.73;;
5688;SDS011;2869;50.432;8.680;2022-11-21T11:10:31;3.30;;;1.70;;
5688;SDS011;2869;50.432;8.680;2022-11-21T11:12:59;2.50;;;1.40;;
5688;SDS011;2869;50.432;8.680;2022-11-21T11:15:51;3.33;;;1.77;;
5688;SDS011;2869;50.432;8.680;2022-11-21T11:18:21;3.33;;;1.50;;
5688;SDS011;2869;50.432;8.680;2022-11-21T11:20:49;1.97;;;1.57;;
5688;SDS011;2869;50.432;8.680;2022-11-21T11:23:16;2.57;;;1.70;;
5688;SDS011;2869;50.432;8.680;2022-11-21T11:25:49;3.40;;;1.80;;
5688;SDS011;2869;50.432;8.680;2022-11-21T11:28:18;5.63;;;1.70;;
5688;SDS011;2869;50.432;8.680;2022-11-21T11:30:45;4.53;;;1.70;;
5688;SDS011;2869;50.432;8.680;2022-11-21T11:33:28;1.73;;;1.33;;
5688;SDS011;2869;50.432;8.680;2022-11-21T11:35:57;3.47;;;2.10;;
5688;SDS011;2869;50.432;8.680;2022-11-21T11:38:36;3.27;;;1.83;;
5688;SDS011;2869;50.432;8.680;2022-11-21T11:41:04;2.80;;;1.57;;
5688;SDS011;2869;50.432;8.680;2022-11-21T11:43:40;1.90;;;1.73;;
5688;SDS011;2869;50.432;8.680;2022-11-21T11:46:35;2.07;;;1.50;;
5688;SDS011;2869;50.432;8.680;2022-11-21T11:49:29;1.53;;;1.43;;
5688;SDS011;2869;50.432;8.680;2022-11-21T11:52:22;2.27;;;1.70;;
5688;SDS011;2869;50.432;8.680;2022-11-21T11:54:54;2.40;;;1.50;;
5688;SDS011;2869;50.432;8.680;2022-11-21T11:57:24;3.10;;;1.90;;
5688;SDS011;2869;50.432;8.680;2022-11-21T11:59:56;1.87;;;1.77;;
5688;SDS011;2869;50.432;8.680;2022-11-21T12:02:32;4.73;;;2.00;;
5688;SDS011;2869;50.432;8.680;2022-11-21T12:05:13;4.63;;;2.37;;
5688;SDS011;2869;50.432;8.680;2022-11-21T12:07:46;4.50;;;2.10;;
5688;SDS011;2869;50.432;8.680;2022-11-21T12:10:22;2.20;;;1.97;;
5688;SDS011;2869;50.432;8.680;2022-11-21T12:12:54;3.43;;;1.50;;
5688;SDS011;2869;50.432;8.680;2022-11-21T12:15:29;2.97;;;1.93;;
5688;SDS011;2869;50.432;8.680;2022-11-21T12:18:23;3.63;;;1.97;;
5688;SDS011;2869;50.432;8.680;2022-11-21T12:21:02;3.53;;;2.20;;
5688;SDS011;2869;50.432;8.680;2022-11-21T12:23:35;3.73;;;1.53;;
5688;SDS011;2869;50.432;8.680;2022-11-21T12:26:21;4.27;;;2.30;;
5688;SDS011;2869;50.432;8.680;2022-11-21T12:29:02;2.00;;;1.90;;
5688;SDS011;2869;50.432;8.680;2022-11-21T12:31:42;2.97;;;1.73;;
5688;SDS011;2869;50.432;8.680;2022-11-21T12:34:21;6.47;;;1.83;;
5688;SDS011;2869;50.432;8.680;2022-11-21T12:37:03;4.30;;;1.70;;
5688;SDS011;2869;50.432;8.680;2022-11-21T12:42:33;3.40;;;1.70;;
5688;SDS011;2869;50.432;8.680;2022-11-21T12:45:21;3.20;;;1.90;;
5688;SDS011;2869;50.432;8.680;2022-11-21T12:48:07;4.03;;;1.80;;
5688;SDS011;2869;50.432;8.680;2022-11-21T12:51:06;2.37;;;2.03;;
5688;SDS011;2869;50.432;8.680;2022-11-21T12:54:03;2.73;;;1.70;;
5688;SDS011;2869;50.432;8.680;2022-11-21T12:57:01;1.67;;;1.40;;
5688;SDS011;2869;50.432;8.680;2022-11-21T12:59:35;3.87;;;1.60;;
5688;SDS011;2869;50.432;8.680;2022-11-21T13:02:12;2.50;;;1.80;;
5688;SDS011;2869;50.432;8.680;2022-11-21T13:04:49;2.57;;;1.70;;
5688;SDS011;2869;50.432;8.680;2022-11-21T13:07:16;2.60;;;1.77;;
5688;SDS011;2869;50.432;8.680;2022-11-21T13:09:46;1.80;;;1.70;;
5688;SDS011;2869;50.432;8.680;2022-11-21T13:12:17;1.53;;;1.43;;
5688;SDS011;2869;50.432;8.680;2022-11-21T13:14:50;1.60;;;1.50;;
5688;SDS011;2869;50.432;8.680;2022-11-21T13:17:26;3.53;;;1.67;;
5688;SDS011;2869;50.432;8.680;2022-11-21T13:20:03;1.40;;;1.23;;
5688;SDS011;2869;50.432;8.680;2022-11-21T13:22:51;3.73;;;2.50;;
5688;SDS011;2869;50.432;8.680;2022-11-21T13:25:40;3.00;;;1.73;;
5688;SDS011;2869;50.432;8.680;2022-11-21T13:30:58;2.60;;;2.20;;
5688;SDS011;2869;50.432;8.680;2022-11-21T13:33:44;2.40;;;2.20;;
5688;SDS011;2869;50.432;8.680;2022-11-21T13:36:33;2.93;;;2.10;;
5688;SDS011;2869;50.432;8.680;2022-11-21T13:39:23;5.43;;;2.40;;
5688;SDS011;2869;50.432;8.680;2022-11-21T13:42:05;6.97;;;2.57;;
5688;SDS011;2869;50.432;8.680;2022-11-21T13:44:51;5.50;;;2.33;;
5688;SDS011;2869;50.432;8.680;2022-11-21T13:47:33;5.80;;;2.43;;
5688;SDS011;2869;50.432;8.680;2022-11-21T13:50:28;2.03;;;1.90;;
5688;SDS011;2869;50.432;8.680;2022-11-21T13:53:23;6.30;;;2.10;;
5688;SDS011;2869;50.432;8.680;2022-11-21T13:56:01;3.00;;;2.60;;
5688;SDS011;2869;50.432;8.680;2022-11-21T13:58:41;5.93;;;2.10;;
5688;SDS011;2869;50.432;8.680;2022-11-21T14:07:28;3.73;;;2.53;;
5688;SDS011;2869;50.432;8.680;2022-11-21T14:09:56;8.63;;;2.50;;
5688;SDS011;2869;50.432;8.680;2022-11-21T14:12:26;2.40;;;1.97;;
5688;SDS011;2869;50.432;8.680;2022-11-21T14:15:09;16.73;;;2.13;;
5688;SDS011;2869;50.432;8.680;2022-11-21T14:17:43;8.37;;;2.60;;
5688;SDS011;2869;50.432;8.680;2022-11-21T14:20:14;2.97;;;2.07;;
5688;SDS011;2869;50.432;8.680;2022-11-21T14:22:45;8.70;;;2.83;;
5688;SDS011;2869;50.432;8.680;2022-11-21T14:25:19;2.93;;;2.63;;
5688;SDS011;2869;50.432;8.680;2022-11-21T14:27:48;2.93;;;2.50;;
5688;SDS011;2869;50.432;8.680;2022-11-21T14:30:27;11.77;;;2.70;;
5688;SDS011;2869;50.432;8.680;2022-11-21T14:32:55;7.43;;;2.57;;
5688;SDS011;2869;50.432;8.680;2022-11-21T14:35:22;5.87;;;2.20;;
5688;SDS011;2869;50.432;8.680;2022-11-21T14:37:49;2.77;;;2.40;;
5688;SDS011;2869;50.432;8.680;2022-11-21T14:40:19;8.60;;;2.53;;
5688;SDS011;2869;50.432;8.680;2022-11-21T14:42:47;3.60;;;2.70;;
5688;SDS011;2869;50.432;8.680;2022-11-21T14:45:14;10.17;;;2.90;;
5688;SDS011;2869;50.432;8.680;2022-11-21T14:47:46;5.20;;;2.73;;
5688;SDS011;2869;50.432;8.680;2022-11-21T14:50:21;7.20;;;2.40;;
5688;SDS011;2869;50.432;8.680;2022-11-21T14:52:49;7.90;;;2.87;;
5688;SDS011;2869;50.432;8.680;2022-11-21T14:55:21;10.47;;;2.77;;
5688;SDS011;2869;50.432;8.680;2022-11-21T14:57:50;4.63;;;2.40;;
5688;SDS011;2869;50.432;8.680;2022-11-21T15:00:19;3.13;;;2.80;;
5688;SDS011;2869;50.432;8.680;2022-11-21T15:02:49;3.70;;;2.40;;
5688;SDS011;2869;50.432;8.680;2022-11-21T15:05:18;4.57;;;2.90;;
5688;SDS011;2869;50.432;8.680;2022-11-21T15:07:47;7.27;;;4.17;;
5688;SDS011;2869;50.432;8.680;2022-11-21T15:10:15;10.43;;;3.50;;
5688;SDS011;2869;50.432;8.680;2022-11-21T15:12:45;11.00;;;6.47;;
5688;SDS011;2869;50.432;8.680;2022-11-21T15:15:23;7.47;;;3.20;;
5688;SDS011;2869;50.432;8.680;2022-11-21T15:17:55;11.17;;;3.83;;
5688;SDS011;2869;50.432;8.680;2022-11-21T15:20:23;11.50;;;3.87;;
5688;SDS011;2869;50.432;8.680;2022-11-21T15:22:53;10.13;;;4.00;;
5688;SDS011;2869;50.432;8.680;2022-11-21T15:25:22;8.37;;;3.43;;
5688;SDS011;2869;50.432;8.680;2022-11-21T15:27:50;18.23;;;4.47;;
5688;SDS011;2869;50.432;8.680;2022-11-21T15:30:24;8.67;;;3.10;;
5688;SDS011;2869;50.432;8.680;2022-11-21T15:35:44;5.70;;;2.97;;
5688;SDS011;2869;50.432;8.680;2022-11-21T15:38:18;10.67;;;3.40;;
5688;SDS011;2869;50.432;8.680;2022-11-21T15:40:55;7.63;;;3.10;;
5688;SDS011;2869;50.432;8.680;2022-11-21T15:43:37;18.87;;;3.30;;
5688;SDS011;2869;50.432;8.680;2022-11-21T15:46:12;8.47;;;4.10;;
5688;SDS011;2869;50.432;8.680;2022-11-21T15:48:46;10.37;;;3.33;;